createdAt,value
2019-03-09T00:00:19.759Z,20.80
2019-03-09T00:01:19.748Z,20.80
2019-03-09T00:02:19.737Z,20.80
2019-03-09T00:03:19.750Z,20.80
2019-03-09T00:04:19.714Z,20.78
2019-03-09T00:05:19.703Z,20.80
2019-03-09T00:06:19.687Z,20.78
2019-03-09T00:07:19.677Z,20.78
2019-03-09T00:08:19.692Z,20.78
2019-03-09T00:09:19.659Z,20.77
2019-03-09T00:10:19.648Z,20.77
2019-03-09T00:11:19.635Z,20.78
2019-03-09T00:12:19.651Z,20.77
2019-03-09T00:13:19.611Z,20.77
2019-03-09T00:14:19.600Z,20.77
2019-03-09T00:15:19.592Z,20.78
2019-03-09T00:16:19.611Z,20.75
2019-03-09T00:17:19.566Z,20.77
2019-03-09T00:18:19.553Z,20.77
2019-03-09T00:19:19.542Z,20.75
2019-03-09T00:20:19.547Z,20.77
2019-03-09T00:21:19.561Z,20.75
2019-03-09T00:22:19.512Z,20.75
2019-03-09T00:23:19.497Z,20.77
2019-03-09T00:24:19.493Z,20.75
2019-03-09T00:25:19.486Z,20.75
2019-03-09T00:26:19.488Z,20.74
2019-03-09T00:27:19.451Z,20.74
2019-03-09T00:28:19.447Z,20.72
2019-03-09T00:29:19.432Z,20.72
2019-03-09T00:30:19.421Z,20.74
2019-03-09T00:31:19.442Z,20.72
2019-03-09T00:32:19.398Z,20.74
2019-03-09T00:33:19.392Z,20.74
2019-03-09T00:34:19.377Z,20.72
2019-03-09T00:35:19.364Z,20.72
2019-03-09T00:36:19.381Z,20.70
2019-03-09T00:37:19.342Z,20.70
2019-03-09T00:38:19.336Z,20.72
2019-03-09T00:39:19.321Z,20.70
2019-03-09T00:40:19.311Z,20.70
2019-03-09T00:41:19.330Z,20.70
2019-03-09T00:42:19.292Z,20.70
2019-03-09T00:43:19.290Z,20.69
2019-03-09T00:44:19.265Z,20.69
2019-03-09T00:45:19.254Z,20.69
2019-03-09T00:46:19.280Z,20.70
2019-03-09T00:47:19.228Z,20.69
2019-03-09T00:48:19.229Z,20.69
2019-03-09T00:49:19.206Z,20.67
2019-03-09T00:50:19.195Z,20.69
2019-03-09T00:51:19.224Z,20.67
2019-03-09T00:52:19.177Z,20.69
2019-03-09T00:53:19.164Z,20.67
2019-03-09T00:54:19.188Z,20.69
2019-03-09T00:55:19.147Z,20.66
2019-03-09T00:56:19.131Z,20.67
2019-03-09T00:57:19.150Z,20.69
2019-03-09T00:58:19.111Z,20.66
2019-03-09T00:59:19.094Z,20.67
2019-03-09T01:00:19.113Z,20.67
2019-03-09T01:01:19.074Z,20.66
2019-03-09T01:02:19.062Z,20.66
2019-03-09T01:03:19.050Z,20.66
2019-03-09T01:04:19.038Z,20.66
2019-03-09T01:05:19.072Z,20.66
2019-03-09T01:06:19.030Z,20.67
2019-03-09T01:07:19.011Z,20.67
2019-03-09T01:08:19.001Z,20.65
2019-03-09T01:09:18.985Z,20.67
2019-03-09T01:10:19.010Z,20.66
2019-03-09T01:11:18.965Z,20.66
2019-03-09T01:12:18.950Z,20.66
2019-03-09T01:13:18.941Z,20.66
2019-03-09T01:14:18.929Z,20.66
2019-03-09T01:15:18.950Z,20.66
2019-03-09T01:16:18.950Z,20.67
2019-03-09T01:17:18.895Z,20.66
2019-03-09T01:18:18.882Z,20.67
2019-03-09T01:19:18.872Z,20.66
2019-03-09T01:20:18.866Z,20.67
2019-03-09T01:21:18.882Z,20.66
2019-03-09T01:22:18.843Z,20.66
2019-03-09T01:23:18.829Z,20.67
2019-03-09T01:24:18.821Z,20.67
2019-03-09T01:25:18.809Z,20.66
2019-03-09T01:26:18.826Z,20.66
2019-03-09T01:27:18.785Z,20.67
2019-03-09T01:28:18.822Z,20.66
2019-03-09T01:29:18.813Z,20.67
2019-03-09T01:30:18.753Z,20.69
2019-03-09T01:31:18.772Z,20.67
2019-03-09T01:32:18.732Z,20.67
2019-03-09T01:33:18.719Z,20.67
2019-03-09T01:34:18.705Z,20.67
2019-03-09T01:35:18.694Z,20.67
2019-03-09T01:36:18.715Z,20.69
2019-03-09T01:37:18.697Z,20.67
2019-03-09T01:38:18.659Z,20.67
2019-03-09T01:39:18.678Z,20.69
2019-03-09T01:40:18.646Z,20.67
2019-03-09T01:41:18.625Z,20.67
2019-03-09T01:42:18.655Z,20.67
2019-03-09T01:43:18.607Z,20.69
2019-03-09T01:44:18.632Z,20.67
2019-03-09T01:45:18.584Z,20.67
2019-03-09T01:46:18.566Z,20.67
2019-03-09T01:47:18.555Z,20.69
2019-03-09T01:48:18.544Z,20.67
2019-03-09T01:49:18.562Z,20.69
2019-03-09T01:50:18.522Z,20.69
2019-03-09T01:51:18.510Z,20.67
2019-03-09T01:52:18.540Z,20.67
2019-03-09T01:53:18.495Z,20.67
2019-03-09T01:54:20.311Z,20.67
2019-03-09T01:55:18.469Z,20.67
2019-03-09T01:56:18.459Z,20.67
2019-03-09T01:57:18.450Z,20.67
2019-03-09T01:58:18.442Z,20.69
2019-03-09T01:59:18.456Z,20.67
2019-03-09T02:00:18.430Z,20.69
2019-03-09T02:01:18.407Z,20.67
2019-03-09T02:02:18.402Z,20.67
2019-03-09T02:03:18.384Z,20.67
2019-03-09T02:04:18.403Z,20.67
2019-03-09T02:05:18.396Z,20.69
2019-03-09T02:06:18.348Z,20.67
2019-03-09T02:07:18.339Z,20.69
2019-03-09T02:08:18.370Z,20.67
2019-03-09T02:09:18.316Z,20.66
2019-03-09T02:10:18.336Z,20.67
2019-03-09T02:11:18.296Z,20.67
2019-03-09T02:12:18.284Z,20.67
2019-03-09T02:13:18.275Z,20.67
2019-03-09T02:14:18.256Z,20.66
2019-03-09T02:15:18.282Z,20.66
2019-03-09T02:16:18.240Z,20.66
2019-03-09T02:17:18.227Z,20.67
2019-03-09T02:18:18.212Z,20.66
2019-03-09T02:19:18.205Z,20.66
2019-03-09T02:20:18.235Z,20.66
2019-03-09T02:21:18.183Z,20.66
2019-03-09T02:22:18.171Z,20.66
2019-03-09T02:23:18.157Z,20.67
2019-03-09T02:24:18.146Z,20.66
2019-03-09T02:25:18.180Z,20.66
2019-03-09T02:26:18.171Z,20.65
2019-03-09T02:27:18.112Z,20.66
2019-03-09T02:28:18.108Z,20.65
2019-03-09T02:29:18.094Z,20.66
2019-03-09T02:30:18.082Z,20.65
2019-03-09T02:31:18.097Z,20.66
2019-03-09T02:32:18.092Z,20.65
2019-03-09T02:33:18.047Z,20.65
2019-03-09T02:34:18.031Z,20.65
2019-03-09T02:35:18.025Z,20.65
2019-03-09T02:36:18.020Z,20.66
2019-03-09T02:37:18.029Z,20.65
2019-03-09T02:38:18.003Z,20.65
2019-03-09T02:39:17.977Z,20.65
2019-03-09T02:40:17.964Z,20.63
2019-03-09T02:41:17.971Z,20.65
2019-03-09T02:42:17.987Z,20.65
2019-03-09T02:43:17.960Z,20.65
2019-03-09T02:44:17.957Z,20.65
2019-03-09T02:45:17.914Z,20.65
2019-03-09T02:46:17.904Z,20.65
2019-03-09T02:47:17.919Z,20.65
2019-03-09T02:48:17.943Z,20.65
2019-03-09T02:49:17.873Z,20.65
2019-03-09T02:50:17.873Z,20.65
2019-03-09T02:51:17.849Z,20.63
2019-03-09T02:52:17.835Z,20.65
2019-03-09T02:53:17.865Z,20.66
2019-03-09T02:54:17.812Z,20.65
2019-03-09T02:55:17.804Z,20.65
2019-03-09T02:56:17.791Z,20.65
2019-03-09T02:57:17.779Z,20.65
2019-03-09T02:58:17.829Z,20.65
2019-03-09T02:59:17.757Z,20.63
2019-03-09T03:00:17.743Z,20.63
2019-03-09T03:01:17.744Z,20.63
2019-03-09T03:02:17.724Z,20.63
2019-03-09T03:03:17.755Z,20.65
2019-03-09T03:04:17.699Z,20.65
2019-03-09T03:05:17.692Z,20.65
2019-03-09T03:06:17.688Z,20.63
2019-03-09T03:07:17.673Z,20.63
2019-03-09T03:08:17.705Z,20.65
2019-03-09T03:09:17.643Z,20.65
2019-03-09T03:10:17.641Z,20.65
2019-03-09T03:11:17.624Z,20.63
2019-03-09T03:12:17.612Z,20.65
2019-03-09T03:13:17.630Z,20.65
2019-03-09T03:14:17.634Z,20.65
2019-03-09T03:15:17.590Z,20.65
2019-03-09T03:16:17.568Z,20.63
2019-03-09T03:17:17.559Z,20.65
2019-03-09T03:18:17.549Z,20.65
2019-03-09T03:19:17.574Z,20.65
2019-03-09T03:20:17.520Z,20.65
2019-03-09T03:21:17.508Z,20.63
2019-03-09T03:22:17.503Z,20.63
2019-03-09T03:23:17.492Z,20.63
2019-03-09T03:24:17.516Z,20.63
2019-03-09T03:25:17.549Z,20.65
2019-03-09T03:26:17.459Z,20.63
2019-03-09T03:27:17.441Z,20.63
2019-03-09T03:28:17.432Z,20.63
2019-03-09T03:29:17.446Z,20.63
2019-03-09T03:30:17.441Z,20.65
2019-03-09T03:31:17.402Z,20.65
2019-03-09T03:32:17.417Z,20.63
2019-03-09T03:33:17.381Z,20.65
2019-03-09T03:34:17.390Z,20.63
2019-03-09T03:35:17.400Z,20.63
2019-03-09T03:36:17.345Z,20.63
2019-03-09T03:37:17.335Z,20.63
2019-03-09T03:38:17.323Z,20.63
2019-03-09T03:39:17.314Z,20.63
2019-03-09T03:40:17.342Z,20.63
2019-03-09T03:41:17.297Z,20.63
2019-03-09T03:42:17.277Z,20.63
2019-03-09T03:43:17.272Z,20.62
2019-03-09T03:44:17.253Z,20.65
2019-03-09T03:45:17.278Z,20.63
2019-03-09T03:46:17.253Z,20.62
2019-03-09T03:47:17.249Z,20.62
2019-03-09T03:48:17.252Z,20.65
2019-03-09T03:49:17.204Z,20.63
2019-03-09T03:50:17.191Z,20.63
2019-03-09T03:51:17.217Z,20.63
2019-03-09T03:52:17.169Z,20.65
2019-03-09T03:53:17.160Z,20.63
2019-03-09T03:54:17.148Z,20.63
2019-03-09T03:55:17.134Z,20.62
2019-03-09T03:56:17.162Z,20.65
2019-03-09T03:57:17.132Z,20.63
2019-03-09T03:58:17.114Z,20.63
2019-03-09T03:59:17.130Z,20.62
2019-03-09T04:00:17.078Z,20.63
2019-03-09T04:01:17.069Z,20.62
2019-03-09T04:02:17.097Z,20.63
2019-03-09T04:03:17.048Z,20.63
2019-03-09T04:04:17.036Z,20.62
2019-03-09T04:05:17.035Z,20.65
2019-03-09T04:06:17.022Z,20.63
2019-03-09T04:07:17.045Z,20.62
2019-03-09T04:08:16.990Z,20.63
2019-03-09T04:09:16.989Z,20.63
2019-03-09T04:10:16.976Z,20.63
2019-03-09T04:11:16.959Z,20.63
2019-03-09T04:12:16.980Z,20.65
2019-03-09T04:13:16.940Z,20.63
2019-03-09T04:14:16.923Z,20.63
2019-03-09T04:15:16.923Z,20.63
2019-03-09T04:16:16.902Z,20.63
2019-03-09T04:17:16.950Z,20.62
2019-03-09T04:18:16.883Z,20.63
2019-03-09T04:19:16.879Z,20.62
2019-03-09T04:20:16.875Z,20.62
2019-03-09T04:21:16.845Z,20.63
2019-03-09T04:22:16.869Z,20.62
2019-03-09T04:23:16.823Z,20.63
2019-03-09T04:24:16.813Z,20.62
2019-03-09T04:25:16.808Z,20.65
2019-03-09T04:26:16.850Z,20.65
2019-03-09T04:27:16.816Z,20.62
2019-03-09T04:28:16.799Z,20.63
2019-03-09T04:29:16.774Z,20.63
2019-03-09T04:30:16.775Z,20.63
2019-03-09T04:31:16.736Z,20.63
2019-03-09T04:32:16.725Z,20.63
2019-03-09T04:33:16.768Z,20.62
2019-03-09T04:34:16.718Z,20.63
2019-03-09T04:35:16.701Z,20.65
2019-03-09T04:36:16.690Z,20.65
2019-03-09T04:37:16.673Z,20.63
2019-03-09T04:38:16.711Z,20.63
2019-03-09T04:39:16.657Z,20.63
2019-03-09T04:40:16.684Z,20.65
2019-03-09T04:41:16.656Z,20.62
2019-03-09T04:42:16.619Z,20.62
2019-03-09T04:43:16.658Z,20.62
2019-03-09T04:44:16.624Z,20.62
2019-03-09T04:45:16.582Z,20.62
2019-03-09T04:46:16.576Z,20.63
2019-03-09T04:47:16.568Z,20.62
2019-03-09T04:48:16.551Z,20.62
2019-03-09T04:49:16.570Z,20.63
2019-03-09T04:50:16.524Z,20.62
2019-03-09T04:51:16.517Z,20.62
2019-03-09T04:52:16.505Z,20.62
2019-03-09T04:53:16.496Z,20.62
2019-03-09T04:54:16.524Z,20.62
2019-03-09T04:55:16.471Z,20.62
2019-03-09T04:56:16.464Z,20.62
2019-03-09T04:57:16.454Z,20.60
2019-03-09T04:58:16.437Z,20.60
2019-03-09T04:59:16.472Z,20.60
2019-03-09T05:00:16.418Z,20.60
2019-03-09T05:01:16.412Z,20.60
2019-03-09T05:02:16.397Z,20.59
2019-03-09T05:03:16.387Z,20.60
2019-03-09T05:04:16.414Z,20.59
2019-03-09T05:05:16.363Z,20.60
2019-03-09T05:06:16.358Z,20.59
2019-03-09T05:07:16.341Z,20.60
2019-03-09T05:08:16.330Z,20.59
2019-03-09T05:09:16.342Z,20.59
2019-03-09T05:10:16.308Z,20.59
2019-03-09T05:11:16.298Z,20.60
2019-03-09T05:12:16.287Z,20.60
2019-03-09T05:13:16.309Z,20.59
2019-03-09T05:14:16.266Z,20.62
2019-03-09T05:15:16.279Z,20.59
2019-03-09T05:16:16.279Z,20.60
2019-03-09T05:17:16.231Z,20.59
2019-03-09T05:18:16.221Z,20.60
2019-03-09T05:19:16.210Z,20.60
2019-03-09T05:20:16.191Z,20.60
2019-03-09T05:21:16.217Z,20.60
2019-03-09T05:22:16.174Z,20.62
2019-03-09T05:23:16.166Z,20.62
2019-03-09T05:24:16.154Z,20.60
2019-03-09T05:25:16.144Z,20.62
2019-03-09T05:26:16.197Z,20.62
2019-03-09T05:27:16.117Z,20.63
2019-03-09T05:28:16.108Z,20.62
2019-03-09T05:29:16.104Z,20.63
2019-03-09T05:30:16.088Z,20.62
2019-03-09T05:31:16.096Z,20.63
2019-03-09T05:32:16.091Z,20.63
2019-03-09T05:33:16.051Z,20.65
2019-03-09T05:34:16.058Z,20.63
2019-03-09T05:35:16.032Z,20.63
2019-03-09T05:36:16.018Z,20.65
2019-03-09T05:37:16.038Z,20.66
2019-03-09T05:38:16.039Z,20.65
2019-03-09T05:39:15.987Z,20.65
2019-03-09T05:40:15.972Z,20.65
2019-03-09T05:41:15.976Z,20.66
2019-03-09T05:42:15.954Z,20.65
2019-03-09T05:43:15.976Z,20.66
2019-03-09T05:44:15.929Z,20.65
2019-03-09T05:45:15.915Z,20.66
2019-03-09T05:46:15.908Z,20.66
2019-03-09T05:47:15.895Z,20.67
2019-03-09T05:48:15.916Z,20.66
2019-03-09T05:49:15.877Z,20.67
2019-03-09T05:50:15.861Z,20.67
2019-03-09T05:51:15.873Z,20.66
2019-03-09T05:52:15.897Z,20.66
2019-03-09T05:53:15.828Z,20.69
2019-03-09T05:54:15.845Z,20.67
2019-03-09T05:55:15.807Z,20.67
2019-03-09T05:56:15.796Z,20.69
2019-03-09T05:57:15.778Z,20.67
2019-03-09T05:58:15.815Z,20.69
2019-03-09T05:59:15.795Z,20.69
2019-03-09T06:00:15.746Z,20.69
2019-03-09T06:01:15.744Z,20.67
2019-03-09T06:02:15.724Z,20.69
2019-03-09T06:03:15.711Z,20.69
2019-03-09T06:04:15.730Z,20.69
2019-03-09T06:05:15.743Z,20.69
2019-03-09T06:06:15.679Z,20.67
2019-03-09T06:07:15.676Z,20.69
2019-03-09T06:08:15.655Z,20.69
2019-03-09T06:09:15.650Z,20.70
2019-03-09T06:10:15.682Z,20.70
2019-03-09T06:11:15.624Z,20.69
2019-03-09T06:12:15.619Z,20.69
2019-03-09T06:13:15.607Z,20.69
2019-03-09T06:14:15.597Z,20.69
2019-03-09T06:15:15.620Z,20.70
2019-03-09T06:16:15.570Z,20.69
2019-03-09T06:17:15.554Z,20.70
2019-03-09T06:18:15.544Z,20.69
2019-03-09T06:19:15.536Z,20.69
2019-03-09T06:20:15.569Z,20.70
2019-03-09T06:21:15.513Z,20.70
2019-03-09T06:22:15.501Z,20.70
2019-03-09T06:23:15.491Z,20.69
2019-03-09T06:24:15.476Z,20.70
2019-03-09T06:25:15.517Z,20.70
2019-03-09T06:26:15.459Z,20.70
2019-03-09T06:27:15.479Z,20.70
2019-03-09T06:28:15.439Z,20.70
2019-03-09T06:29:15.426Z,20.70
2019-03-09T06:30:15.408Z,20.70
2019-03-09T06:31:15.434Z,20.70
2019-03-09T06:32:15.418Z,20.69
2019-03-09T06:33:15.394Z,20.72
2019-03-09T06:34:15.367Z,20.70
2019-03-09T06:35:15.357Z,20.72
2019-03-09T06:36:15.386Z,20.74
2019-03-09T06:37:15.332Z,20.72
2019-03-09T06:38:15.338Z,20.70
2019-03-09T06:39:15.309Z,20.72
2019-03-09T06:40:15.303Z,20.70
2019-03-09T06:41:15.334Z,20.74
2019-03-09T06:42:15.277Z,20.70
2019-03-09T06:43:15.270Z,20.72
2019-03-09T06:44:15.261Z,20.74
2019-03-09T06:45:15.252Z,20.72
2019-03-09T06:46:15.267Z,20.72
2019-03-09T06:47:15.220Z,20.74
2019-03-09T06:48:15.218Z,20.72
2019-03-09T06:49:15.206Z,20.72
2019-03-09T06:50:15.190Z,20.74
2019-03-09T06:51:15.232Z,20.72
2019-03-09T06:52:15.165Z,20.72
2019-03-09T06:53:15.182Z,20.74
2019-03-09T06:54:15.151Z,20.72
2019-03-09T06:55:15.137Z,20.74
2019-03-09T06:56:15.124Z,20.72
2019-03-09T06:57:15.114Z,20.72
2019-03-09T06:58:15.135Z,20.72
2019-03-09T06:59:15.090Z,20.74
2019-03-09T07:00:15.080Z,20.74
2019-03-09T07:01:15.083Z,20.74
2019-03-09T07:02:15.058Z,20.74
2019-03-09T07:03:15.092Z,20.72
2019-03-09T07:04:15.034Z,20.72
2019-03-09T07:05:15.028Z,20.72
2019-03-09T07:06:15.015Z,20.74
2019-03-09T07:07:14.998Z,20.74
2019-03-09T07:08:15.022Z,20.74
2019-03-09T07:09:14.976Z,20.74
2019-03-09T07:10:15.003Z,20.74
2019-03-09T07:11:15.000Z,20.74
2019-03-09T07:12:14.949Z,20.74
2019-03-09T07:13:14.935Z,20.72
2019-03-09T07:14:14.969Z,20.74
2019-03-09T07:15:14.908Z,20.74
2019-03-09T07:16:14.930Z,20.74
2019-03-09T07:17:14.893Z,20.74
2019-03-09T07:18:14.877Z,20.74
2019-03-09T07:19:14.864Z,20.74
2019-03-09T07:20:14.855Z,20.74
2019-03-09T07:21:14.873Z,20.74
2019-03-09T07:22:14.831Z,20.74
2019-03-09T07:23:14.833Z,20.72
2019-03-09T07:24:14.825Z,20.74
2019-03-09T07:25:14.803Z,20.74
2019-03-09T07:26:14.826Z,20.74
2019-03-09T07:27:14.773Z,20.74
2019-03-09T07:28:14.768Z,20.74
2019-03-09T07:29:14.755Z,20.74
2019-03-09T07:30:14.743Z,20.74
2019-03-09T07:31:14.768Z,20.74
2019-03-09T07:32:14.725Z,20.74
2019-03-09T07:33:14.714Z,20.72
2019-03-09T07:34:14.741Z,20.74
2019-03-09T07:35:14.691Z,20.72
2019-03-09T07:36:14.675Z,20.75
2019-03-09T07:37:14.667Z,20.75
2019-03-09T07:38:14.658Z,20.75
2019-03-09T07:39:14.682Z,20.74
2019-03-09T07:40:14.634Z,20.74
2019-03-09T07:41:14.619Z,20.74
2019-03-09T07:42:14.612Z,20.74
2019-03-09T07:43:14.601Z,20.74
2019-03-09T07:44:14.651Z,20.74
2019-03-09T07:45:14.580Z,20.74
2019-03-09T07:46:14.565Z,20.75
2019-03-09T07:47:14.565Z,20.74
2019-03-09T07:48:14.556Z,20.75
2019-03-09T07:49:14.571Z,20.75
2019-03-09T07:50:14.518Z,20.74
2019-03-09T07:51:14.513Z,20.75
2019-03-09T07:52:14.500Z,20.75
2019-03-09T07:53:14.488Z,20.72
2019-03-09T07:54:14.502Z,20.75
2019-03-09T07:55:14.494Z,20.75
2019-03-09T07:56:14.457Z,20.74
2019-03-09T07:57:14.442Z,20.74
2019-03-09T07:58:14.434Z,20.74
2019-03-09T07:59:14.417Z,20.75
2019-03-09T08:00:14.448Z,20.74
2019-03-09T08:01:14.396Z,20.74
2019-03-09T08:02:14.384Z,20.74
2019-03-09T08:03:14.371Z,20.74
2019-03-09T08:04:14.394Z,20.72
2019-03-09T08:05:14.349Z,20.75
2019-03-09T08:06:14.374Z,20.74
2019-03-09T08:07:14.950Z,20.74
2019-03-09T08:08:14.315Z,20.77
2019-03-09T08:09:14.309Z,20.75
2019-03-09T08:10:14.307Z,20.74
2019-03-09T08:11:14.319Z,20.75
2019-03-09T08:12:14.278Z,20.74
2019-03-09T08:13:14.260Z,20.74
2019-03-09T08:14:14.251Z,20.75
2019-03-09T08:15:14.407Z,20.74
2019-03-09T08:16:14.276Z,20.72
2019-03-09T08:17:14.214Z,20.74
2019-03-09T08:18:14.213Z,20.74
2019-03-09T08:19:14.194Z,20.74
2019-03-09T08:20:14.185Z,20.74
2019-03-09T08:21:14.205Z,20.75
2019-03-09T08:22:14.160Z,20.74
2019-03-09T08:23:14.183Z,20.72
2019-03-09T08:24:14.139Z,20.74
2019-03-09T08:25:14.140Z,20.74
2019-03-09T08:26:14.156Z,20.72
2019-03-09T08:27:14.106Z,20.72
2019-03-09T08:28:16.249Z,20.72
2019-03-09T08:29:14.090Z,20.74
2019-03-09T08:30:14.132Z,20.72
2019-03-09T08:31:14.067Z,20.74
2019-03-09T08:32:14.061Z,20.72
2019-03-09T08:33:14.094Z,20.74
2019-03-09T08:34:14.031Z,20.72
2019-03-09T08:35:14.023Z,20.72
2019-03-09T08:36:14.006Z,20.72
2019-03-09T08:37:13.998Z,20.72
2019-03-09T08:38:14.015Z,20.72
2019-03-09T08:39:13.990Z,20.72
2019-03-09T08:40:13.994Z,20.72
2019-03-09T08:41:13.957Z,20.72
2019-03-09T08:42:13.944Z,20.74
2019-03-09T08:43:13.976Z,20.72
2019-03-09T08:44:13.979Z,20.72
2019-03-09T08:45:13.917Z,20.72
2019-03-09T08:46:13.903Z,20.70
2019-03-09T08:47:13.911Z,20.72
2019-03-09T08:48:13.933Z,20.72
2019-03-09T08:49:13.877Z,20.74
2019-03-09T08:50:13.886Z,20.72
2019-03-09T08:51:13.863Z,20.72
2019-03-09T08:52:13.839Z,20.72
2019-03-09T08:53:13.816Z,20.70
2019-03-09T08:54:13.806Z,20.70
2019-03-09T08:55:13.831Z,20.70
2019-03-09T08:56:13.810Z,20.70
2019-03-09T08:57:13.790Z,20.72
2019-03-09T08:58:13.762Z,20.70
2019-03-09T08:59:13.801Z,20.72
2019-03-09T09:00:13.788Z,20.72
2019-03-09T09:01:13.764Z,20.70
2019-03-09T09:02:13.735Z,20.72
2019-03-09T09:03:13.711Z,20.72
2019-03-09T09:04:13.698Z,20.70
2019-03-09T09:05:13.714Z,20.72
2019-03-09T09:06:13.704Z,20.72
2019-03-09T09:07:13.694Z,20.72
2019-03-09T09:08:13.657Z,20.72
2019-03-09T09:09:13.648Z,20.72
2019-03-09T09:10:13.626Z,20.74
2019-03-09T09:11:13.672Z,20.75
2019-03-09T09:12:13.604Z,20.75
2019-03-09T09:13:13.594Z,20.77
2019-03-09T09:14:13.588Z,20.77
2019-03-09T09:15:14.834Z,20.77
2019-03-09T09:16:13.611Z,20.77
2019-03-09T09:17:13.551Z,20.78
2019-03-09T09:18:13.542Z,20.77
2019-03-09T09:19:13.548Z,20.78
2019-03-09T09:20:13.521Z,20.80
2019-03-09T09:21:13.550Z,20.78
2019-03-09T09:22:13.554Z,20.78
2019-03-09T09:23:13.496Z,20.80
2019-03-09T09:24:13.471Z,20.80
2019-03-09T09:25:13.469Z,20.80
2019-03-09T09:26:13.451Z,20.80
2019-03-09T09:27:13.473Z,20.80
2019-03-09T09:28:13.427Z,20.80
2019-03-09T09:29:13.466Z,20.81
2019-03-09T09:30:13.406Z,20.82
2019-03-09T09:31:13.394Z,20.81
2019-03-09T09:32:13.381Z,20.81
2019-03-09T09:33:13.375Z,20.84
2019-03-09T09:34:13.392Z,20.81
2019-03-09T09:35:13.350Z,20.82
2019-03-09T09:36:13.368Z,20.82
2019-03-09T09:37:13.328Z,20.82
2019-03-09T09:38:13.315Z,20.82
2019-03-09T09:39:13.303Z,20.81
2019-03-09T09:40:13.296Z,20.82
2019-03-09T09:41:13.318Z,20.81
2019-03-09T09:42:13.286Z,20.81
2019-03-09T09:43:13.258Z,20.81
2019-03-09T09:44:13.246Z,20.84
2019-03-09T09:45:13.240Z,20.82
2019-03-09T09:46:13.284Z,20.82
2019-03-09T09:47:13.218Z,20.84
2019-03-09T09:48:13.209Z,20.84
2019-03-09T09:49:13.191Z,20.84
2019-03-09T09:50:13.183Z,20.84
2019-03-09T09:51:13.209Z,20.85
2019-03-09T09:52:13.180Z,20.84
2019-03-09T09:53:13.151Z,20.85
2019-03-09T09:54:13.159Z,20.85
2019-03-09T09:55:13.133Z,20.87
2019-03-09T09:56:13.148Z,20.87
2019-03-09T09:57:13.102Z,20.85
2019-03-09T09:58:13.127Z,20.87
2019-03-09T09:59:14.537Z,20.87
2019-03-09T10:00:13.073Z,20.85
2019-03-09T10:01:13.069Z,20.85
2019-03-09T10:02:13.084Z,20.85
2019-03-09T10:03:13.045Z,20.85
2019-03-09T10:04:13.056Z,20.85
2019-03-09T10:05:13.038Z,20.85
2019-03-09T10:06:13.007Z,20.87
2019-03-09T10:07:12.999Z,20.87
2019-03-09T10:08:13.019Z,20.85
2019-03-09T10:09:12.976Z,20.85
2019-03-09T10:10:12.961Z,20.87
2019-03-09T10:11:12.956Z,20.87
2019-03-09T10:12:12.944Z,20.87
2019-03-09T10:13:12.963Z,20.88
2019-03-09T10:14:12.926Z,20.88
2019-03-09T10:15:12.935Z,20.87
2019-03-09T10:16:12.932Z,20.87
2019-03-09T10:17:12.887Z,20.87
2019-03-09T10:18:12.879Z,20.87
2019-03-09T10:19:13.008Z,20.87
2019-03-09T10:20:12.850Z,20.87
2019-03-09T10:21:12.846Z,20.88
2019-03-09T10:22:12.831Z,20.87
2019-03-09T10:23:12.827Z,20.88
2019-03-09T10:24:12.849Z,20.88
2019-03-09T10:25:12.797Z,20.87
2019-03-09T10:26:12.787Z,20.87
2019-03-09T10:27:12.838Z,20.88
2019-03-09T10:28:12.814Z,20.88
2019-03-09T10:29:12.763Z,20.87
2019-03-09T10:30:12.747Z,20.87
2019-03-09T10:31:12.735Z,20.88
2019-03-09T10:32:12.750Z,20.88
2019-03-09T10:33:12.711Z,20.88
2019-03-09T10:34:12.695Z,20.88
2019-03-09T10:35:12.685Z,20.88
2019-03-09T10:36:12.707Z,20.88
2019-03-09T10:37:12.663Z,20.88
2019-03-09T10:38:12.671Z,20.88
2019-03-09T10:39:12.645Z,20.88
2019-03-09T10:40:12.629Z,20.88
2019-03-09T10:41:12.657Z,20.88
2019-03-09T10:42:12.613Z,20.88
2019-03-09T10:43:12.604Z,20.88
2019-03-09T10:44:12.594Z,20.88
2019-03-09T10:45:12.580Z,20.88
2019-03-09T10:46:12.602Z,20.92
2019-03-09T10:47:12.556Z,20.90
2019-03-09T10:48:12.590Z,20.92
2019-03-09T10:49:12.536Z,20.92
2019-03-09T10:50:12.523Z,20.92
2019-03-09T10:51:12.516Z,20.92
2019-03-09T10:52:12.498Z,20.93
2019-03-09T10:53:12.524Z,20.93
2019-03-09T10:54:12.478Z,20.95
2019-03-09T10:55:12.467Z,20.93
2019-03-09T10:56:12.461Z,20.93
2019-03-09T10:57:12.481Z,20.93
2019-03-09T10:58:12.495Z,20.95
2019-03-09T10:59:12.423Z,20.95
2019-03-09T11:00:12.412Z,20.95
2019-03-09T11:01:12.408Z,20.92
2019-03-09T11:02:12.392Z,20.93
2019-03-09T11:03:12.424Z,20.92
2019-03-09T11:04:12.370Z,20.92
2019-03-09T11:05:12.358Z,20.93
2019-03-09T11:06:12.351Z,20.93
2019-03-09T11:07:12.341Z,20.93
2019-03-09T11:08:12.358Z,20.92
2019-03-09T11:09:12.317Z,20.92
2019-03-09T11:10:12.305Z,20.92
2019-03-09T11:11:12.295Z,20.92
2019-03-09T11:12:12.382Z,20.92
2019-03-09T11:13:12.274Z,20.90
2019-03-09T11:14:12.257Z,20.88
2019-03-09T11:15:12.252Z,20.90
2019-03-09T11:16:12.236Z,20.90
2019-03-09T11:17:12.259Z,20.90
2019-03-09T11:18:12.246Z,20.88
2019-03-09T11:19:12.203Z,20.88
2019-03-09T11:20:12.193Z,20.87
2019-03-09T11:21:12.184Z,20.88
2019-03-09T11:22:12.176Z,20.87
2019-03-09T11:23:12.188Z,20.87
2019-03-09T11:24:12.172Z,20.87
2019-03-09T11:25:12.165Z,20.87
2019-03-09T11:26:12.127Z,20.87
2019-03-09T11:27:12.120Z,20.88
2019-03-09T11:28:12.110Z,20.87
2019-03-09T11:29:12.126Z,20.87
2019-03-09T11:30:12.085Z,20.87
2019-03-09T11:31:12.076Z,20.87
2019-03-09T11:32:12.063Z,20.87
2019-03-09T11:33:12.053Z,20.87
2019-03-09T11:34:12.097Z,20.87
2019-03-09T11:35:12.026Z,20.87
2019-03-09T11:36:12.024Z,20.87
2019-03-09T11:37:12.011Z,20.85
2019-03-09T11:38:12.007Z,20.87
2019-03-09T11:39:12.030Z,20.85
2019-03-09T11:40:11.979Z,20.85
2019-03-09T11:41:18.961Z,20.87
2019-03-09T11:42:12.956Z,20.87
2019-03-09T11:43:11.942Z,20.87
2019-03-09T11:44:12.000Z,20.87
2019-03-09T11:45:11.918Z,20.88
2019-03-09T11:46:11.908Z,20.88
2019-03-09T11:47:11.913Z,20.88
2019-03-09T11:48:11.885Z,20.88
2019-03-09T11:49:11.906Z,20.92
2019-03-09T11:50:11.933Z,20.90
2019-03-09T11:51:11.858Z,20.92
2019-03-09T11:52:19.586Z,20.93
2019-03-09T11:53:12.831Z,20.93
2019-03-09T11:54:11.816Z,20.95
2019-03-09T11:55:11.859Z,20.95
2019-03-09T11:56:11.801Z,20.95
2019-03-09T11:57:11.807Z,20.96
2019-03-09T11:58:11.775Z,20.95
2019-03-09T11:59:11.766Z,20.96
2019-03-09T12:00:11.779Z,20.97
2019-03-09T12:01:11.781Z,20.96
2019-03-09T12:02:11.732Z,20.97
2019-03-09T12:03:11.721Z,20.99
2019-03-09T12:04:11.712Z,21.00
2019-03-09T12:05:11.692Z,21.00
2019-03-09T12:06:11.712Z,21.00
2019-03-09T12:07:11.673Z,21.00
2019-03-09T12:08:11.687Z,21.02
2019-03-09T12:09:11.647Z,21.02
2019-03-09T12:10:11.657Z,21.03
2019-03-09T12:11:11.656Z,21.05
2019-03-09T12:12:11.621Z,21.05
2019-03-09T12:13:11.641Z,21.03
2019-03-09T12:14:11.598Z,21.03
2019-03-09T12:15:11.582Z,21.05
2019-03-09T12:16:11.580Z,21.06
2019-03-09T12:17:12.999Z,21.06
2019-03-09T12:18:11.580Z,21.06
2019-03-09T12:19:11.535Z,21.05
2019-03-09T12:20:11.545Z,21.07
2019-03-09T12:21:11.515Z,21.07
2019-03-09T12:22:11.532Z,21.06
2019-03-09T12:23:11.492Z,21.07
2019-03-09T12:24:17.478Z,21.06
2019-03-09T12:25:12.479Z,21.09
2019-03-09T12:26:11.464Z,21.07
2019-03-09T12:27:11.475Z,21.09
2019-03-09T12:28:11.523Z,21.07
2019-03-09T12:29:11.434Z,21.07
2019-03-09T12:30:11.412Z,21.07
2019-03-09T12:31:11.434Z,21.07
2019-03-09T12:32:11.388Z,21.09
2019-03-09T12:33:11.436Z,21.07
2019-03-09T12:34:11.375Z,21.07
2019-03-09T12:35:11.360Z,21.06
2019-03-09T12:36:11.350Z,21.07
2019-03-09T12:37:11.337Z,21.06
2019-03-09T12:38:11.382Z,21.06
2019-03-09T12:39:11.315Z,21.06
2019-03-09T12:40:11.306Z,21.06
2019-03-09T12:41:11.293Z,21.07
2019-03-09T12:42:11.279Z,21.06
2019-03-09T12:43:11.316Z,21.06
2019-03-09T12:44:11.257Z,21.06
2019-03-09T12:45:11.246Z,21.07
2019-03-09T12:46:11.238Z,21.06
2019-03-09T12:47:11.227Z,21.07
2019-03-09T12:48:11.239Z,21.07
2019-03-09T12:49:11.207Z,21.06
2019-03-09T12:50:11.190Z,21.06
2019-03-09T12:51:11.206Z,21.06
2019-03-09T12:52:11.174Z,21.06